Air Resources Laboratory banner image
Air Resources Laboratory web site National Oceanic and Atmospheric Administration (NOAA)

md metar


KADW 201456Z AUTO 32012KT 10SM SCT080 10/03 A2995 RMK AO2 SLP150 T00980033
 52019 $=
KAPG 201449Z 31006KT 10SM SCT025 BKN080 08/05 A2995 RMK SLP145 52014=
KBWI 201454Z 31015G22KT 10SM FEW032 SCT070 BKN095 09/03 A2994 RMK AO2 SLP140
 ACSL W-N T00940028 53016=
KDMH 201454Z AUTO 11/03 A2996 RMK AO1 SLP146 T01060033 53019=
KFME 201503Z AUTO 31007G15KT 10SM OVC085 09/05 A2998 RMK AO1=
KHGR 201453Z 30008KT 10SM FEW028 FEW034 OVC075 07/01 A2998 RMK AO2 SLP166
 T00720011 51019=
KMTN 201445Z 33007KT 7SM HZ FEW010 BKN090 10/07 A2996=
KNHK 201452Z 31008KT 10SM BKN044 11/07 A2995 RMK AO2 SLP141 T01060072 53015=
KOXB 201453Z AUTO 33010KT 9SM BKN100 13/11 A2991 RMK AO2 SLP129 T01280106 51007=
KSBY 201454Z 31006KT 10SM SCT085 13/10 A2992 RMK AO2 SLP135 T01280100 51014=